createdAt,value
2022-12-27T00:00:14.260Z,2.50
2022-12-27T00:02:45.907Z,2.60
2022-12-27T00:05:15.692Z,2.50
2022-12-27T00:07:44.047Z,2.60
2022-12-27T00:10:19.673Z,2.60
2022-12-27T00:12:47.288Z,2.60
2022-12-27T00:15:15.432Z,2.60
2022-12-27T00:17:45.819Z,2.50
2022-12-27T00:20:13.643Z,2.50
2022-12-27T00:22:41.345Z,2.60
2022-12-27T00:25:12.347Z,2.60
2022-12-27T00:27:42.623Z,2.60
2022-12-27T00:30:10.764Z,2.60
2022-12-27T00:32:46.225Z,2.70
2022-12-27T00:35:13.971Z,2.60
2022-12-27T00:37:42.010Z,2.70
2022-12-27T00:40:10.491Z,2.70
2022-12-27T00:45:07.209Z,2.80
2022-12-27T00:47:34.934Z,2.80
2022-12-27T00:50:02.743Z,2.90
2022-12-27T00:52:30.727Z,3.00
2022-12-27T00:54:58.342Z,3.00
2022-12-27T00:57:26.064Z,3.10
2022-12-27T00:59:53.758Z,3.10
2022-12-27T01:02:21.568Z,3.20
2022-12-27T01:04:49.536Z,3.20
2022-12-27T01:07:17.184Z,3.20
2022-12-27T01:09:45.056Z,3.20
2022-12-27T01:12:12.659Z,3.20
2022-12-27T01:14:40.368Z,3.20
2022-12-27T01:17:08.053Z,3.30
2022-12-27T01:19:36.847Z,3.30
2022-12-27T01:22:08.516Z,3.20
2022-12-27T01:24:36.270Z,3.30
2022-12-27T01:27:04.041Z,3.20
2022-12-27T01:29:32.563Z,3.10
2022-12-27T01:32:00.198Z,3.10
2022-12-27T01:34:27.879Z,3.00
2022-12-27T01:36:55.600Z,3.00
2022-12-27T01:39:23.324Z,2.90
2022-12-27T01:42:09.644Z,2.80
2022-12-27T01:44:56.483Z,2.70
2022-12-27T01:48:05.191Z,2.60
2022-12-27T01:50:45.283Z,2.50
2022-12-27T01:53:23.261Z,2.40
2022-12-27T01:56:04.312Z,2.20
2022-12-27T01:58:37.715Z,2.00
2022-12-27T02:01:09.070Z,2.00
2022-12-27T02:03:41.577Z,1.90
2022-12-27T02:06:11.790Z,1.80
2022-12-27T02:08:43.981Z,1.80
2022-12-27T02:11:17.909Z,1.70
2022-12-27T02:13:46.744Z,1.60
2022-12-27T02:16:22.010Z,1.60
2022-12-27T02:18:53.286Z,1.50
2022-12-27T02:21:38.683Z,1.50
2022-12-27T02:24:44.451Z,1.50
2022-12-27T02:27:41.517Z,1.50
2022-12-27T02:30:13.013Z,1.50
2022-12-27T02:33:06.124Z,1.50
2022-12-27T02:35:36.101Z,1.50
2022-12-27T02:38:14.832Z,1.40
2022-12-27T02:41:04.245Z,1.30
2022-12-27T02:43:52.118Z,1.30
2022-12-27T02:46:42.316Z,1.30
2022-12-27T02:49:49.685Z,1.30
2022-12-27T02:52:55.980Z,1.40
2022-12-27T02:55:35.781Z,1.40
2022-12-27T02:58:03.432Z,1.40
2022-12-27T03:01:05.096Z,1.20
2022-12-27T03:03:47.958Z,1.20
2022-12-27T03:06:39.700Z,1.20
2022-12-27T03:09:36.366Z,1.20
2022-12-27T03:12:31.239Z,1.10
2022-12-27T03:15:30.479Z,1.10
2022-12-27T03:18:09.702Z,1.00
2022-12-27T03:20:58.552Z,0.90
2022-12-27T03:23:45.610Z,0.90
2022-12-27T03:26:14.766Z,0.80
2022-12-27T03:29:02.524Z,0.80
2022-12-27T03:31:55.028Z,0.80
2022-12-27T03:34:35.764Z,0.70
2022-12-27T03:37:26.843Z,0.60
2022-12-27T03:39:59.345Z,0.60
2022-12-27T03:42:48.454Z,0.60
2022-12-27T03:45:17.150Z,0.50
2022-12-27T03:48:01.437Z,0.40
2022-12-27T03:50:36.433Z,0.40
2022-12-27T03:53:12.560Z,0.30
2022-12-27T03:55:40.586Z,0.30
2022-12-27T03:58:08.125Z,0.30
2022-12-27T04:00:35.912Z,0.20
2022-12-27T04:03:04.618Z,0.20
2022-12-27T04:05:32.261Z,0.20
2022-12-27T04:08:18.826Z,0.20
2022-12-27T04:11:05.591Z,0.20
2022-12-27T04:13:51.781Z,0.10
2022-12-27T04:16:38.200Z,0.10
2022-12-27T04:19:27.026Z,0.10
2022-12-27T04:22:13.651Z,0.10
2022-12-27T04:25:00.053Z,0.10
2022-12-27T04:27:46.772Z,0.10
2022-12-27T04:30:32.838Z,0.10
2022-12-27T04:33:18.985Z,0.10
2022-12-27T04:35:46.740Z,0.10
2022-12-27T04:38:14.362Z,0.10
2022-12-27T04:41:00.626Z,0.20
2022-12-27T04:43:46.889Z,0.20
2022-12-27T04:46:40.716Z,0.20
2022-12-27T04:49:44.872Z,0.20
2022-12-27T04:52:38.631Z,0.30
2022-12-27T04:55:09.015Z,0.30
2022-12-27T04:57:36.602Z,0.30
2022-12-27T05:00:24.349Z,0.30
2022-12-27T05:02:52.319Z,0.30
2022-12-27T05:05:20.370Z,0.40
2022-12-27T05:08:07.354Z,0.40
2022-12-27T05:10:53.692Z,0.30
2022-12-27T05:13:40.055Z,0.30
2022-12-27T05:16:07.656Z,0.40
2022-12-27T05:18:35.492Z,0.40
2022-12-27T05:21:05.700Z,0.30
2022-12-27T05:23:58.822Z,0.40
2022-12-27T05:26:31.536Z,0.40
2022-12-27T05:29:00.336Z,0.40
2022-12-27T05:31:29.492Z,0.40
2022-12-27T05:33:57.637Z,0.40
2022-12-27T05:36:25.713Z,0.40
2022-12-27T05:38:53.502Z,0.50
2022-12-27T05:41:21.213Z,0.50
2022-12-27T05:43:49.354Z,0.60
2022-12-27T05:46:19.636Z,0.60
2022-12-27T05:48:47.877Z,0.60
2022-12-27T05:51:21.064Z,0.70
2022-12-27T05:53:49.088Z,0.70
2022-12-27T05:56:19.741Z,0.70
2022-12-27T05:58:47.464Z,0.80
2022-12-27T06:01:17.479Z,0.80
2022-12-27T06:03:46.237Z,0.80
2022-12-27T06:06:14.384Z,0.90
2022-12-27T06:08:42.144Z,0.90
2022-12-27T06:11:12.297Z,0.90
2022-12-27T06:13:41.097Z,1.00
2022-12-27T06:16:10.827Z,1.00
2022-12-27T06:18:39.540Z,1.00
2022-12-27T06:21:16.033Z,1.00
2022-12-27T06:23:45.342Z,1.00
2022-12-27T06:26:26.667Z,1.00
2022-12-27T06:28:56.461Z,1.10
2022-12-27T06:31:24.921Z,1.10
2022-12-27T06:34:01.477Z,1.20
2022-12-27T06:36:32.625Z,1.20
2022-12-27T06:39:00.452Z,1.30
2022-12-27T06:41:28.168Z,1.30
2022-12-27T06:43:58.275Z,1.40
2022-12-27T06:46:26.041Z,1.30
2022-12-27T06:48:53.757Z,1.50
2022-12-27T06:51:22.029Z,1.40
2022-12-27T06:53:50.417Z,1.50
2022-12-27T06:56:23.046Z,1.50
2022-12-27T06:58:51.296Z,1.50
2022-12-27T07:01:22.438Z,1.60
2022-12-27T07:03:57.558Z,1.60
2022-12-27T07:06:29.991Z,1.60
2022-12-27T07:08:59.906Z,1.70
2022-12-27T07:11:27.901Z,1.70
2022-12-27T07:13:56.550Z,1.70
2022-12-27T07:16:31.527Z,1.70
2022-12-27T07:19:00.459Z,1.80
2022-12-27T07:21:29.647Z,1.80
2022-12-27T07:23:57.976Z,1.80
2022-12-27T07:26:30.248Z,1.80
2022-12-27T07:29:00.575Z,1.80
2022-12-27T07:31:31.214Z,1.90
2022-12-27T07:34:01.811Z,1.90
2022-12-27T07:36:35.564Z,1.90
2022-12-27T07:39:04.555Z,1.90
2022-12-27T07:41:35.902Z,1.90
2022-12-27T07:44:04.450Z,1.90
2022-12-27T07:46:32.928Z,2.00
2022-12-27T07:49:00.818Z,2.00
2022-12-27T07:51:29.572Z,2.10
2022-12-27T07:53:57.340Z,2.10
2022-12-27T07:56:27.534Z,2.20
2022-12-27T07:58:58.275Z,2.20
2022-12-27T08:01:29.018Z,2.30
2022-12-27T08:03:58.894Z,2.50
2022-12-27T08:06:33.734Z,2.40
2022-12-27T08:09:09.605Z,2.60
2022-12-27T08:11:37.397Z,2.70
2022-12-27T08:14:05.257Z,2.70
2022-12-27T08:16:33.461Z,2.80
2022-12-27T08:19:08.372Z,2.80
2022-12-27T08:21:36.846Z,2.90
2022-12-27T08:24:04.962Z,3.00
2022-12-27T08:26:32.716Z,3.00
2022-12-27T08:29:00.392Z,3.10
2022-12-27T08:31:30.729Z,3.00
2022-12-27T08:33:58.795Z,3.10
2022-12-27T08:39:14.630Z,3.10
2022-12-27T08:41:42.404Z,3.20
2022-12-27T08:44:10.515Z,3.20
2022-12-27T08:46:38.221Z,3.20
2022-12-27T08:49:09.236Z,3.20
2022-12-27T08:51:41.037Z,3.20
2022-12-27T08:54:09.677Z,3.30
2022-12-27T08:56:37.731Z,3.30
2022-12-27T08:59:05.655Z,3.40
2022-12-27T09:01:33.358Z,3.30
2022-12-27T09:04:01.079Z,3.40
2022-12-27T09:06:28.743Z,3.40
2022-12-27T09:08:56.472Z,3.40
2022-12-27T09:11:26.958Z,3.50
2022-12-27T09:13:55.467Z,3.50
2022-12-27T09:16:24.944Z,3.60
2022-12-27T09:18:54.197Z,3.50
2022-12-27T09:21:23.879Z,3.50
2022-12-27T09:23:51.924Z,3.50
2022-12-27T09:26:26.379Z,3.40
2022-12-27T09:28:54.484Z,3.40
2022-12-27T09:31:23.166Z,3.40
2022-12-27T09:33:51.490Z,3.40
2022-12-27T09:36:21.634Z,3.60
2022-12-27T09:38:51.768Z,3.60
2022-12-27T09:42:43.762Z,3.70
2022-12-27T09:44:38.848Z,3.70
2022-12-27T09:47:27.283Z,3.80
2022-12-27T09:50:00.798Z,3.80
2022-12-27T09:52:35.133Z,3.90
2022-12-27T09:55:06.476Z,4.00
2022-12-27T09:57:41.684Z,4.00
2022-12-27T10:00:34.167Z,3.90
2022-12-27T10:03:06.033Z,4.00
2022-12-27T10:05:37.183Z,4.00
2022-12-27T10:08:19.675Z,4.00
2022-12-27T10:11:08.361Z,4.00
2022-12-27T10:13:36.011Z,4.10
2022-12-27T10:16:10.876Z,4.10
2022-12-27T10:19:05.664Z,4.20
2022-12-27T10:21:39.425Z,4.20
2022-12-27T10:24:40.789Z,4.30
2022-12-27T10:27:20.634Z,4.30
2022-12-27T10:29:52.007Z,4.30
2022-12-27T10:32:19.835Z,4.40
2022-12-27T10:34:57.689Z,4.30
2022-12-27T10:37:25.352Z,4.40
2022-12-27T10:39:53.227Z,4.50
2022-12-27T10:42:32.182Z,4.50
2022-12-27T10:45:32.463Z,4.50
2022-12-27T10:48:15.083Z,4.60
2022-12-27T10:51:09.682Z,4.60
2022-12-27T10:53:41.261Z,4.70
2022-12-27T10:56:34.168Z,4.70
2022-12-27T10:59:25.661Z,4.80
2022-12-27T11:02:02.550Z,4.80
2022-12-27T11:04:31.466Z,4.80
2022-12-27T11:07:05.007Z,5.50
2022-12-27T11:09:44.927Z,4.90
2022-12-27T11:12:23.738Z,4.90
2022-12-27T11:14:55.496Z,4.90
2022-12-27T11:17:37.073Z,5.00
2022-12-27T11:20:33.245Z,5.00
2022-12-27T11:23:09.835Z,5.10
2022-12-27T11:25:52.420Z,5.10
2022-12-27T11:28:26.507Z,5.20
2022-12-27T11:31:03.958Z,5.20
2022-12-27T11:33:39.901Z,5.30
2022-12-27T11:36:10.051Z,5.30
2022-12-27T11:38:39.688Z,5.40
2022-12-27T11:41:43.164Z,5.40
2022-12-27T11:44:26.912Z,5.50
2022-12-27T11:47:16.030Z,5.50
2022-12-27T11:49:51.606Z,5.60
2022-12-27T11:52:58.312Z,5.60
2022-12-27T11:55:48.155Z,5.70
2022-12-27T11:58:44.095Z,5.90
2022-12-27T12:01:36.479Z,5.80
2022-12-27T12:04:22.427Z,5.90
2022-12-27T12:07:05.283Z,5.90
2022-12-27T12:09:46.838Z,6.00
2022-12-27T12:12:17.575Z,6.00
2022-12-27T12:15:02.473Z,6.10
2022-12-27T12:18:18.064Z,6.10
2022-12-27T12:20:54.773Z,6.20
2022-12-27T12:23:52.257Z,6.20
2022-12-27T12:26:25.500Z,6.20
2022-12-27T12:29:34.652Z,6.30
2022-12-27T12:32:29.115Z,6.30
2022-12-27T12:35:41.019Z,6.30
2022-12-27T12:38:17.157Z,6.40
2022-12-27T12:41:06.052Z,6.40
2022-12-27T12:44:18.127Z,6.40
2022-12-27T12:47:09.207Z,6.50
2022-12-27T12:50:23.918Z,6.50
2022-12-27T12:53:00.854Z,6.60
2022-12-27T12:55:40.424Z,6.60
2022-12-27T12:58:23.518Z,6.70
2022-12-27T13:01:23.441Z,6.80
2022-12-27T13:04:22.996Z,6.90
2022-12-27T13:07:03.492Z,6.90
2022-12-27T13:09:50.241Z,7.00
2022-12-27T13:12:47.493Z,7.10
2022-12-27T13:15:24.764Z,7.10
2022-12-27T13:18:10.546Z,7.20
2022-12-27T13:20:49.912Z,7.30
2022-12-27T13:23:48.394Z,7.30
2022-12-27T13:26:24.953Z,7.40
2022-12-27T13:29:25.380Z,7.40
2022-12-27T13:31:58.153Z,7.40
2022-12-27T13:34:53.580Z,7.40
2022-12-27T13:37:55.125Z,7.40
2022-12-27T13:40:42.144Z,7.40
2022-12-27T13:43:27.235Z,7.40
2022-12-27T13:46:15.244Z,7.40
2022-12-27T13:49:00.848Z,7.50
2022-12-27T13:51:44.311Z,7.50
2022-12-27T13:54:45.145Z,7.50
2022-12-27T13:57:44.490Z,7.50
2022-12-27T14:00:21.141Z,7.50
2022-12-27T14:03:16.766Z,7.50
2022-12-27T14:06:12.329Z,7.60
2022-12-27T14:09:07.211Z,7.60
2022-12-27T14:11:43.743Z,7.60
2022-12-27T14:14:16.494Z,7.60
2022-12-27T14:16:53.227Z,7.70
2022-12-27T14:19:58.427Z,7.60
2022-12-27T14:22:37.938Z,7.70
2022-12-27T14:25:26.011Z,7.70
2022-12-27T14:28:19.038Z,7.70
2022-12-27T14:31:17.091Z,7.70
2022-12-27T14:34:08.645Z,7.70
2022-12-27T14:37:07.437Z,7.70
2022-12-27T14:40:06.231Z,7.70
2022-12-27T14:43:08.390Z,7.70
2022-12-27T14:45:59.130Z,7.70
2022-12-27T14:49:00.450Z,7.70
2022-12-27T14:52:05.966Z,7.70
2022-12-27T14:55:14.399Z,7.70
2022-12-27T14:58:17.702Z,7.80
2022-12-27T15:00:58.116Z,7.80
2022-12-27T15:03:58.121Z,7.80
2022-12-27T15:06:47.221Z,7.80
2022-12-27T15:09:19.841Z,7.80
2022-12-27T15:12:29.279Z,7.80
2022-12-27T15:15:02.576Z,7.80
2022-12-27T15:17:51.673Z,7.90
2022-12-27T15:20:34.478Z,7.90
2022-12-27T15:23:05.251Z,7.90
2022-12-27T15:25:54.968Z,7.90
2022-12-27T15:28:56.518Z,7.90
2022-12-27T15:31:45.782Z,7.90
2022-12-27T15:34:31.849Z,7.90
2022-12-27T15:36:59.832Z,7.90
2022-12-27T15:39:33.262Z,7.90
2022-12-27T15:42:24.930Z,7.90
2022-12-27T15:45:37.277Z,7.90
2022-12-27T15:48:35.589Z,7.90
2022-12-27T15:51:33.074Z,7.80
2022-12-27T15:54:18.785Z,7.80
2022-12-27T15:56:58.693Z,7.90
2022-12-27T15:59:45.593Z,7.90
2022-12-27T16:02:33.962Z,7.90
2022-12-27T16:05:26.189Z,7.90
2022-12-27T16:08:33.179Z,7.90
2022-12-27T16:11:02.907Z,7.90
2022-12-27T16:13:41.808Z,7.90
2022-12-27T16:16:27.824Z,7.90
2022-12-27T16:19:01.205Z,8.00
2022-12-27T16:21:39.041Z,8.00
2022-12-27T16:24:24.088Z,8.00
2022-12-27T16:27:01.990Z,8.10
2022-12-27T16:29:35.343Z,8.10
2022-12-27T16:32:21.935Z,8.10
2022-12-27T16:34:57.905Z,8.10
2022-12-27T16:37:33.458Z,8.00
2022-12-27T16:40:23.947Z,8.10
2022-12-27T16:42:57.575Z,8.10
2022-12-27T16:45:39.355Z,8.10
2022-12-27T16:48:21.840Z,8.10
2022-12-27T16:51:12.831Z,8.10
2022-12-27T16:53:55.673Z,8.10
2022-12-27T16:56:28.814Z,8.00
2022-12-27T16:58:57.146Z,8.00
2022-12-27T17:01:45.367Z,8.00
2022-12-27T17:04:53.043Z,7.90
2022-12-27T17:07:56.296Z,8.00
2022-12-27T17:10:36.694Z,8.00
2022-12-27T17:13:13.571Z,8.00
2022-12-27T17:16:21.976Z,8.00
2022-12-27T17:18:54.769Z,7.90
2022-12-27T17:21:32.918Z,7.90
2022-12-27T17:24:06.760Z,7.90
2022-12-27T17:27:32.136Z,7.90
2022-12-27T17:30:11.761Z,7.90
2022-12-27T17:32:58.570Z,7.90
2022-12-27T17:35:38.059Z,7.90
2022-12-27T17:38:26.707Z,7.90
2022-12-27T17:41:03.441Z,7.90
2022-12-27T17:44:32.593Z,7.90
2022-12-27T17:47:30.409Z,7.90
2022-12-27T17:50:05.157Z,7.90
2022-12-27T17:52:58.893Z,7.90
2022-12-27T17:55:47.895Z,7.80
2022-12-27T17:58:17.165Z,7.80
2022-12-27T18:00:56.483Z,7.70
2022-12-27T18:03:29.885Z,7.80
2022-12-27T18:05:57.643Z,7.80
2022-12-27T18:08:28.850Z,7.70
2022-12-27T18:10:58.326Z,7.70
2022-12-27T18:13:27.989Z,7.70
2022-12-27T18:15:57.059Z,7.70
2022-12-27T18:18:31.208Z,7.70
2022-12-27T18:21:01.384Z,7.70
2022-12-27T18:23:29.116Z,7.70
2022-12-27T18:26:04.894Z,7.70
2022-12-27T18:28:35.680Z,7.70
2022-12-27T18:31:15.056Z,7.70
2022-12-27T18:33:51.846Z,7.80
2022-12-27T18:36:26.885Z,7.70
2022-12-27T18:39:25.975Z,7.70
2022-12-27T18:41:54.738Z,7.70
2022-12-27T18:44:39.830Z,7.70
2022-12-27T18:47:27.143Z,7.70
2022-12-27T18:49:59.372Z,7.70
2022-12-27T18:52:44.708Z,7.70
2022-12-27T18:55:26.794Z,7.70
2022-12-27T18:58:20.819Z,7.80
2022-12-27T19:01:01.470Z,7.80
2022-12-27T19:03:33.874Z,7.80
2022-12-27T19:06:13.216Z,7.80
2022-12-27T19:08:47.875Z,7.80
2022-12-27T19:11:33.096Z,7.80
2022-12-27T19:14:05.365Z,7.80
2022-12-27T19:16:35.737Z,7.80
2022-12-27T19:19:10.509Z,7.80
2022-12-27T19:21:39.621Z,7.80
2022-12-27T19:24:22.018Z,7.90
2022-12-27T19:26:54.593Z,7.90
2022-12-27T19:29:28.511Z,7.90
2022-12-27T19:32:06.213Z,7.90
2022-12-27T19:34:51.176Z,7.90
2022-12-27T19:37:19.451Z,7.90
2022-12-27T19:39:49.217Z,7.90
2022-12-27T19:42:26.459Z,7.90
2022-12-27T19:44:54.319Z,7.90
2022-12-27T19:47:22.466Z,7.90
2022-12-27T19:49:50.180Z,7.90
2022-12-27T19:52:26.905Z,7.90
2022-12-27T19:55:05.601Z,7.90
2022-12-27T19:57:33.540Z,7.90
2022-12-27T20:00:05.383Z,7.90
2022-12-27T20:02:36.648Z,7.90
2022-12-27T20:05:04.999Z,7.90
2022-12-27T20:07:32.864Z,7.90
2022-12-27T20:10:00.500Z,7.90
2022-12-27T20:12:28.323Z,7.90
2022-12-27T20:14:55.970Z,7.90
2022-12-27T20:17:23.669Z,7.90
2022-12-27T20:19:51.803Z,7.90
2022-12-27T20:22:20.465Z,7.90
2022-12-27T20:24:48.214Z,7.90
2022-12-27T20:27:16.032Z,7.90
2022-12-27T20:29:44.623Z,8.00
2022-12-27T20:32:13.067Z,8.00
2022-12-27T20:37:09.014Z,8.00
2022-12-27T20:39:36.612Z,8.00
2022-12-27T20:42:04.475Z,8.00
2022-12-27T20:44:32.513Z,8.00
2022-12-27T20:47:00.178Z,8.00
2022-12-27T20:49:27.865Z,8.10
2022-12-27T20:51:55.566Z,8.10
2022-12-27T20:56:51.139Z,8.10
2022-12-27T20:59:18.893Z,8.10
2022-12-27T21:01:49.381Z,8.10
2022-12-27T21:04:20.792Z,8.10
2022-12-27T21:06:48.429Z,8.10
2022-12-27T21:09:16.273Z,8.20
2022-12-27T21:11:44.186Z,8.20
2022-12-27T21:14:13.345Z,8.20
2022-12-27T21:16:41.464Z,8.20
2022-12-27T21:19:09.273Z,8.20
2022-12-27T21:21:38.521Z,8.10
2022-12-27T21:24:12.069Z,8.10
2022-12-27T21:26:41.341Z,8.00
2022-12-27T21:29:10.304Z,8.00
2022-12-27T21:31:38.941Z,7.90
2022-12-27T21:34:07.993Z,7.80
2022-12-27T21:36:38.303Z,7.80
2022-12-27T21:39:07.583Z,7.70
2022-12-27T21:41:38.214Z,7.60
2022-12-27T21:44:06.675Z,7.60
2022-12-27T21:46:37.104Z,7.60
2022-12-27T21:49:07.567Z,7.50
2022-12-27T21:51:36.920Z,7.50
2022-12-27T21:54:04.749Z,7.50
2022-12-27T21:56:33.200Z,7.50
2022-12-27T21:59:03.022Z,7.40
2022-12-27T22:01:49.980Z,7.50
2022-12-27T22:04:22.695Z,7.40
2022-12-27T22:06:50.679Z,7.40
2022-12-27T22:09:19.387Z,7.40
2022-12-27T22:11:48.414Z,8.10
2022-12-27T22:14:18.738Z,7.40
2022-12-27T22:16:49.545Z,7.40
2022-12-27T22:19:17.428Z,7.40
2022-12-27T22:21:45.193Z,7.40
2022-12-27T22:24:17.289Z,7.40
2022-12-27T22:26:45.027Z,7.40
2022-12-27T22:29:12.954Z,7.40
2022-12-27T22:31:42.628Z,7.40
2022-12-27T22:34:10.298Z,7.30
2022-12-27T22:36:38.063Z,7.30
2022-12-27T22:39:05.904Z,7.30
2022-12-27T22:41:35.607Z,7.30
2022-12-27T22:44:08.433Z,7.30
2022-12-27T22:47:15.312Z,7.30
2022-12-27T22:49:24.256Z,7.30
2022-12-27T22:51:52.328Z,7.30
2022-12-27T22:54:20.048Z,7.30
2022-12-27T22:56:47.747Z,7.30
2022-12-27T22:59:16.681Z,7.30
2022-12-27T23:01:46.209Z,7.30
2022-12-27T23:04:14.800Z,7.30
2022-12-27T23:06:42.851Z,7.30
2022-12-27T23:09:10.809Z,7.30
2022-12-27T23:11:43.244Z,7.30
2022-12-27T23:14:13.657Z,7.30
2022-12-27T23:16:43.954Z,7.30
2022-12-27T23:19:12.675Z,7.30
2022-12-27T23:21:40.432Z,7.30
2022-12-27T23:24:08.764Z,7.30
2022-12-27T23:26:36.805Z,7.20
2022-12-27T23:29:04.606Z,7.30
2022-12-27T23:31:33.229Z,7.30
2022-12-27T23:34:01.182Z,7.30
2022-12-27T23:36:30.971Z,7.30
2022-12-27T23:38:58.678Z,7.30
2022-12-27T23:41:26.827Z,7.30
2022-12-27T23:43:56.047Z,9.30
2022-12-27T23:46:28.961Z,7.30
2022-12-27T23:48:58.143Z,7.30
2022-12-27T23:51:26.228Z,7.30
2022-12-27T23:53:54.224Z,7.30
2022-12-27T23:56:29.459Z,7.30
2022-12-27T23:58:59.001Z,7.40
